createdAt,value
2023-01-12T00:01:31.613Z,3.20
2023-01-12T00:03:58.457Z,2.97
2023-01-12T00:06:25.377Z,2.60
2023-01-12T00:08:52.737Z,2.10
2023-01-12T00:11:19.868Z,2.90
2023-01-12T00:13:46.253Z,2.90
2023-01-12T00:16:37.868Z,2.63
2023-01-12T00:19:05.081Z,1.97
2023-01-12T00:21:35.654Z,2.70
2023-01-12T00:24:01.999Z,2.30
2023-01-12T00:26:28.336Z,2.70
2023-01-12T00:28:54.680Z,2.90
2023-01-12T00:31:21.062Z,2.60
2023-01-12T00:33:47.401Z,3.87
2023-01-12T00:36:17.516Z,2.00
2023-01-12T00:38:43.841Z,2.20
2023-01-12T00:41:32.763Z,2.33
2023-01-12T00:44:17.680Z,2.77
2023-01-12T00:46:44.410Z,2.07
2023-01-12T00:49:10.752Z,3.60
2023-01-12T00:51:37.092Z,3.73
2023-01-12T00:54:04.646Z,2.87
2023-01-12T00:56:31.547Z,4.00
2023-01-12T00:58:57.873Z,2.73
2023-01-12T01:01:24.356Z,3.30
2023-01-12T01:03:50.775Z,3.13
2023-01-12T01:06:17.293Z,2.90
2023-01-12T01:08:43.760Z,3.40
2023-01-12T01:11:11.893Z,2.97
2023-01-12T01:13:43.943Z,3.20
2023-01-12T01:16:15.686Z,3.20
2023-01-12T01:18:42.660Z,3.53
2023-01-12T01:21:10.515Z,3.37
2023-01-12T01:23:38.198Z,2.90
2023-01-12T01:26:11.233Z,2.90
2023-01-12T01:28:38.066Z,2.30
2023-01-12T01:31:06.673Z,3.00
2023-01-12T01:33:33.307Z,2.70
2023-01-12T01:35:59.685Z,3.30
2023-01-12T01:38:26.381Z,2.70
2023-01-12T01:40:53.005Z,2.60
2023-01-12T01:43:20.636Z,2.90
2023-01-12T01:45:55.939Z,2.77
2023-01-12T01:48:24.265Z,2.90
2023-01-12T01:50:58.587Z,2.80
2023-01-12T01:53:28.616Z,2.73
2023-01-12T01:56:01.075Z,3.07
2023-01-12T01:58:41.132Z,3.27
2023-01-12T02:01:07.864Z,3.17
2023-01-12T02:03:36.856Z,2.87
2023-01-12T02:06:06.795Z,2.20
2023-01-12T02:08:54.749Z,2.40
2023-01-12T02:11:40.510Z,3.03
2023-01-12T02:14:25.256Z,3.10
2023-01-12T02:17:07.749Z,2.60
2023-01-12T02:20:10.080Z,2.53
2023-01-12T02:23:14.193Z,3.13
2023-01-12T02:25:52.509Z,2.80
2023-01-12T02:28:58.745Z,3.20
2023-01-12T02:31:28.094Z,2.83
2023-01-12T02:34:13.536Z,2.53
2023-01-12T02:36:52.688Z,3.07
2023-01-12T02:39:39.050Z,2.30
2023-01-12T02:42:43.220Z,2.83
2023-01-12T02:45:22.073Z,2.47
2023-01-12T02:47:56.276Z,2.50
2023-01-12T02:50:50.994Z,2.83
2023-01-12T02:53:24.255Z,2.87
2023-01-12T02:55:51.724Z,2.80
2023-01-12T02:58:22.441Z,2.67
2023-01-12T03:00:55.117Z,2.33
2023-01-12T03:03:22.466Z,2.60
2023-01-12T03:05:48.873Z,2.57
2023-01-12T03:08:23.585Z,2.50
2023-01-12T03:11:01.128Z,2.60
2023-01-12T03:13:31.308Z,2.67
2023-01-12T03:15:59.690Z,2.90
2023-01-12T03:18:34.216Z,2.30
2023-01-12T03:21:05.838Z,2.70
2023-01-12T03:23:40.341Z,2.50
2023-01-12T03:26:10.244Z,1.77
2023-01-12T03:28:39.315Z,2.70
2023-01-12T03:31:11.793Z,2.40
2023-01-12T03:33:40.828Z,3.30
2023-01-12T03:36:20.249Z,2.00
2023-01-12T03:38:59.375Z,2.00
2023-01-12T03:41:36.322Z,2.40
2023-01-12T03:44:05.610Z,2.10
2023-01-12T03:46:39.774Z,2.33
2023-01-12T03:49:35.451Z,2.23
2023-01-12T03:52:03.996Z,2.00
2023-01-12T03:54:31.338Z,2.00
2023-01-12T03:56:58.095Z,2.60
2023-01-12T03:59:24.845Z,2.80
2023-01-12T04:01:51.740Z,2.70
2023-01-12T04:04:18.290Z,4.27
2023-01-12T04:06:44.617Z,2.30
2023-01-12T04:09:11.005Z,2.10
2023-01-12T04:12:03.625Z,2.87
2023-01-12T04:14:29.957Z,2.00
2023-01-12T04:16:56.277Z,2.30
2023-01-12T04:19:22.583Z,2.20
2023-01-12T04:22:07.768Z,2.03
2023-01-12T04:24:34.084Z,3.07
2023-01-12T04:27:00.571Z,1.70
2023-01-12T04:29:26.904Z,1.80
2023-01-12T04:31:53.280Z,1.80
2023-01-12T04:34:19.625Z,2.23
2023-01-12T04:36:45.955Z,2.17
2023-01-12T04:39:12.302Z,2.10
2023-01-12T04:41:38.806Z,2.23
2023-01-12T04:44:05.182Z,2.00
2023-01-12T04:46:31.734Z,1.90
2023-01-12T04:48:58.463Z,1.80
2023-01-12T04:51:26.250Z,2.50
2023-01-12T04:53:53.142Z,2.37
2023-01-12T04:56:19.651Z,1.43
2023-01-12T04:58:46.228Z,2.10
2023-01-12T05:01:18.620Z,2.57
2023-01-12T05:03:45.233Z,1.70
2023-01-12T05:06:11.902Z,1.80
2023-01-12T05:08:57.520Z,1.90
2023-01-12T05:11:28.494Z,1.60
2023-01-12T05:13:55.834Z,2.00
2023-01-12T05:16:22.349Z,2.10
2023-01-12T05:18:49.126Z,2.27
2023-01-12T05:21:17.764Z,1.80
2023-01-12T05:23:45.420Z,1.60
2023-01-12T05:26:12.384Z,2.27
2023-01-12T05:28:38.843Z,1.80
2023-01-12T05:31:14.507Z,2.43
2023-01-12T05:33:42.388Z,1.63
2023-01-12T05:36:11.510Z,1.73
2023-01-12T05:38:37.824Z,1.93
2023-01-12T05:41:07.249Z,2.73
2023-01-12T05:43:51.711Z,1.80
2023-01-12T05:46:33.134Z,1.50
2023-01-12T05:48:59.461Z,1.80
2023-01-12T05:51:27.451Z,1.83
2023-01-12T05:53:55.022Z,2.00
2023-01-12T05:56:27.121Z,1.93
2023-01-12T05:58:59.084Z,1.63
2023-01-12T06:01:26.007Z,1.97
2023-01-12T06:03:54.747Z,2.10
2023-01-12T06:06:23.303Z,1.87
2023-01-12T06:08:52.629Z,2.37
2023-01-12T06:11:38.298Z,1.93
2023-01-12T06:14:05.282Z,1.87
2023-01-12T06:16:32.210Z,2.10
2023-01-12T06:18:58.569Z,1.57
2023-01-12T06:21:25.574Z,1.53
2023-01-12T06:23:52.089Z,1.70
2023-01-12T06:26:18.495Z,1.73
2023-01-12T06:28:45.090Z,1.50
2023-01-12T06:31:13.214Z,2.20
2023-01-12T06:33:39.954Z,2.07
2023-01-12T06:36:06.863Z,1.53
2023-01-12T06:38:34.969Z,1.90
2023-01-12T06:41:31.450Z,1.77
2023-01-12T06:43:58.566Z,2.60
2023-01-12T06:46:28.375Z,1.77
2023-01-12T06:48:56.064Z,1.80
2023-01-12T06:51:22.438Z,1.93
2023-01-12T06:53:48.748Z,1.87
2023-01-12T06:56:15.073Z,2.13
2023-01-12T06:58:44.502Z,1.93
2023-01-12T07:01:11.457Z,1.90
2023-01-12T07:03:37.912Z,2.90
2023-01-12T07:06:04.481Z,2.30
2023-01-12T07:08:32.104Z,1.90
2023-01-12T07:11:05.178Z,1.60
2023-01-12T07:13:31.725Z,1.43
2023-01-12T07:15:59.992Z,2.17
2023-01-12T07:18:27.869Z,2.13
2023-01-12T07:20:54.237Z,1.83
2023-01-12T07:23:20.633Z,1.97
2023-01-12T07:25:46.948Z,2.17
2023-01-12T07:28:13.307Z,1.60
2023-01-12T07:30:39.814Z,1.77
2023-01-12T07:33:12.219Z,1.67
2023-01-12T07:35:39.671Z,1.70
2023-01-12T07:38:06.218Z,2.17
2023-01-12T07:40:32.915Z,2.43
2023-01-12T07:43:01.350Z,2.23
2023-01-12T07:45:28.925Z,1.53
2023-01-12T07:47:56.013Z,1.60
2023-01-12T07:50:24.306Z,1.43
2023-01-12T07:52:50.773Z,1.40
2023-01-12T07:55:19.064Z,1.50
2023-01-12T07:57:56.369Z,1.80
2023-01-12T08:00:23.905Z,2.23
2023-01-12T08:02:51.590Z,1.93
2023-01-12T08:05:18.634Z,1.90
2023-01-12T08:07:45.241Z,1.63
2023-01-12T08:10:13.291Z,1.60
2023-01-12T08:12:39.879Z,2.33
2023-01-12T08:15:06.869Z,1.80
2023-01-12T08:17:39.803Z,2.23
2023-01-12T08:20:19.577Z,1.90
2023-01-12T08:22:51.424Z,1.50
2023-01-12T08:25:30.467Z,1.90
2023-01-12T08:28:03.006Z,1.53
2023-01-12T08:30:30.007Z,1.60
2023-01-12T08:32:59.781Z,1.37
2023-01-12T08:35:28.669Z,2.00
2023-01-12T08:37:56.283Z,1.60
2023-01-12T08:40:23.896Z,2.03
2023-01-12T08:42:50.328Z,1.70
2023-01-12T08:45:16.652Z,2.10
2023-01-12T08:47:45.082Z,2.40
2023-01-12T08:50:11.520Z,1.93
2023-01-12T08:52:37.832Z,1.37
2023-01-12T08:55:04.452Z,1.70
2023-01-12T08:57:30.754Z,1.57
2023-01-12T08:59:57.779Z,1.50
2023-01-12T09:02:25.367Z,2.00
2023-01-12T09:04:51.787Z,2.97
2023-01-12T09:07:19.569Z,1.37
2023-01-12T09:09:45.912Z,1.70
2023-01-12T09:12:12.251Z,2.40
2023-01-12T09:14:38.955Z,1.40
2023-01-12T09:17:06.673Z,1.90
2023-01-12T09:19:33.044Z,2.30
2023-01-12T09:21:59.387Z,2.00
2023-01-12T09:24:25.780Z,1.60
2023-01-12T09:26:52.228Z,1.60
2023-01-12T09:29:18.700Z,1.70
2023-01-12T09:31:45.579Z,2.23
2023-01-12T09:34:12.632Z,1.80
2023-01-12T09:36:40.083Z,1.50
2023-01-12T09:39:12.538Z,1.73
2023-01-12T09:42:02.508Z,1.67
2023-01-12T09:44:59.612Z,1.30
2023-01-12T09:47:47.525Z,1.50
2023-01-12T09:50:16.228Z,1.77
2023-01-12T09:52:58.671Z,1.63
2023-01-12T09:55:29.366Z,1.30
2023-01-12T09:57:55.641Z,1.30
2023-01-12T10:00:22.352Z,1.47
2023-01-12T10:03:06.486Z,1.83
2023-01-12T10:05:47.255Z,1.97
2023-01-12T10:08:18.480Z,1.47
2023-01-12T10:10:58.232Z,1.53
2023-01-12T10:13:31.969Z,1.77
2023-01-12T10:16:10.052Z,1.90
2023-01-12T10:18:47.420Z,1.70
2023-01-12T10:21:14.419Z,1.37
2023-01-12T10:23:41.101Z,1.57
2023-01-12T10:26:22.028Z,1.50
2023-01-12T10:28:52.393Z,1.67
2023-01-12T10:31:24.947Z,1.53
2023-01-12T10:34:07.126Z,2.33
2023-01-12T10:36:36.927Z,2.07
2023-01-12T10:39:05.975Z,1.50
2023-01-12T10:41:37.757Z,1.97
2023-01-12T10:44:23.219Z,1.20
2023-01-12T10:47:09.502Z,1.13
2023-01-12T10:49:36.033Z,1.27
2023-01-12T10:52:10.166Z,1.67
2023-01-12T10:54:38.419Z,1.23
2023-01-12T10:57:13.750Z,1.30
2023-01-12T10:59:41.431Z,1.33
2023-01-12T11:02:08.299Z,1.77
2023-01-12T11:04:52.672Z,1.17
2023-01-12T11:07:31.540Z,1.43
2023-01-12T11:10:19.439Z,1.53
2023-01-12T11:13:00.771Z,1.00
2023-01-12T11:15:29.538Z,1.17
2023-01-12T11:18:27.980Z,1.57
2023-01-12T11:21:01.993Z,1.20
2023-01-12T11:23:34.574Z,1.50
2023-01-12T11:26:03.973Z,1.40
2023-01-12T11:28:36.356Z,1.30
2023-01-12T11:31:17.831Z,1.50
2023-01-12T11:33:49.480Z,1.27
2023-01-12T11:36:31.516Z,1.10
2023-01-12T11:39:05.070Z,1.33
2023-01-12T11:42:09.479Z,1.13
2023-01-12T11:44:43.447Z,1.33
2023-01-12T11:47:21.265Z,1.40
2023-01-12T11:49:55.823Z,1.50
2023-01-12T11:52:25.102Z,1.90
2023-01-12T11:54:51.607Z,2.10
2023-01-12T11:57:49.725Z,1.53
2023-01-12T12:00:35.010Z,1.37
2023-01-12T12:03:31.312Z,2.30
2023-01-12T12:06:22.581Z,1.53
2023-01-12T12:09:12.035Z,1.10
2023-01-12T12:11:47.653Z,1.40
2023-01-12T12:14:41.677Z,0.90
2023-01-12T12:17:20.654Z,1.27
2023-01-12T12:19:57.514Z,1.27
2023-01-12T12:22:48.701Z,1.20
2023-01-12T12:25:27.749Z,1.30
2023-01-12T12:28:08.785Z,1.27
2023-01-12T12:30:59.087Z,1.17
2023-01-12T12:33:44.211Z,0.97
2023-01-12T12:36:19.797Z,1.33
2023-01-12T12:39:19.248Z,1.10
2023-01-12T12:42:17.888Z,1.10
2023-01-12T12:45:16.952Z,1.30
2023-01-12T12:47:56.855Z,1.00
2023-01-12T12:50:29.230Z,1.10
2023-01-12T12:53:16.911Z,1.27
2023-01-12T12:55:44.810Z,1.03
2023-01-12T12:58:20.554Z,1.17
2023-01-12T13:00:47.984Z,1.30
2023-01-12T13:03:40.517Z,0.93
2023-01-12T13:06:30.156Z,1.60
2023-01-12T13:09:02.001Z,1.70
2023-01-12T13:11:56.052Z,1.23
2023-01-12T13:14:42.819Z,1.77
2023-01-12T13:17:18.409Z,1.70
2023-01-12T13:19:50.312Z,1.30
2023-01-12T13:22:32.724Z,1.43
2023-01-12T13:25:30.771Z,1.50
2023-01-12T13:28:00.653Z,1.00
2023-01-12T13:30:30.137Z,1.47
2023-01-12T13:33:15.958Z,1.43
2023-01-12T13:35:47.052Z,2.10
2023-01-12T13:38:40.633Z,1.20
2023-01-12T13:41:46.616Z,1.37
2023-01-12T13:44:34.802Z,1.50
2023-01-12T13:47:15.974Z,1.20
2023-01-12T13:49:47.600Z,1.10
2023-01-12T13:52:32.061Z,1.90
2023-01-12T13:54:58.671Z,1.43
2023-01-12T13:57:27.469Z,1.30
2023-01-12T14:00:18.878Z,1.53
2023-01-12T14:02:45.374Z,1.43
2023-01-12T14:05:22.417Z,1.63
2023-01-12T14:08:08.741Z,1.37
2023-01-12T14:10:47.433Z,1.30
2023-01-12T14:13:45.675Z,1.20
2023-01-12T14:16:34.130Z,1.43
2023-01-12T14:19:01.034Z,1.47
2023-01-12T14:21:39.259Z,1.30
2023-01-12T14:24:20.619Z,1.20
2023-01-12T14:26:47.359Z,1.40
2023-01-12T14:29:13.795Z,1.23
2023-01-12T14:31:44.208Z,1.17
2023-01-12T14:34:34.702Z,1.50
2023-01-12T14:37:03.333Z,0.90
2023-01-12T14:39:36.861Z,1.27
2023-01-12T14:42:22.984Z,1.20
2023-01-12T14:45:14.440Z,0.97
2023-01-12T14:47:41.494Z,1.27
2023-01-12T14:50:14.018Z,1.40
2023-01-12T14:52:42.927Z,1.77
2023-01-12T14:55:25.371Z,1.40
2023-01-12T14:57:59.252Z,1.10
2023-01-12T15:00:29.037Z,1.50
2023-01-12T15:02:57.659Z,1.17
2023-01-12T15:05:36.611Z,1.33
2023-01-12T15:08:08.931Z,1.10
2023-01-12T15:10:40.815Z,1.20
2023-01-12T15:13:25.185Z,1.40
2023-01-12T15:16:11.670Z,0.90
2023-01-12T15:18:56.769Z,1.47
2023-01-12T15:21:43.753Z,1.03
2023-01-12T15:24:38.394Z,1.43
2023-01-12T15:27:06.939Z,1.20
2023-01-12T15:29:33.657Z,1.37
2023-01-12T15:32:01.024Z,1.73
2023-01-12T15:34:27.573Z,1.50
2023-01-12T15:36:53.901Z,1.13
2023-01-12T15:39:20.227Z,1.37
2023-01-12T15:42:05.630Z,1.10
2023-01-12T15:44:32.065Z,1.60
2023-01-12T15:46:58.387Z,1.97
2023-01-12T15:49:24.745Z,1.50
2023-01-12T15:51:51.905Z,1.20
2023-01-12T15:54:19.999Z,1.20
2023-01-12T15:56:46.817Z,1.10
2023-01-12T15:59:13.396Z,1.50
2023-01-12T16:01:47.082Z,1.23
2023-01-12T16:04:41.975Z,1.43
2023-01-12T16:07:09.326Z,1.47
2023-01-12T16:09:35.867Z,1.60
2023-01-12T16:12:02.200Z,1.40
2023-01-12T16:14:28.550Z,1.27
2023-01-12T16:16:54.894Z,1.30
2023-01-12T16:19:22.197Z,1.00
2023-01-12T16:21:48.568Z,1.60
2023-01-12T16:24:14.959Z,2.90
2023-01-12T16:26:41.472Z,2.37
2023-01-12T16:29:08.494Z,1.50
2023-01-12T16:31:37.328Z,2.53
2023-01-12T16:34:05.263Z,1.00
2023-01-12T16:36:31.606Z,1.40
2023-01-12T16:38:58.366Z,1.50
2023-01-12T16:41:24.786Z,1.40
2023-01-12T16:43:51.193Z,1.30
2023-01-12T16:46:17.845Z,1.40
2023-01-12T16:48:44.987Z,1.20
2023-01-12T16:51:16.702Z,1.40
2023-01-12T16:53:43.357Z,1.37
2023-01-12T16:56:14.494Z,1.57
2023-01-12T16:58:47.463Z,1.50
2023-01-12T17:01:16.386Z,1.10
2023-01-12T17:03:43.059Z,1.50
2023-01-12T17:06:12.199Z,2.60
2023-01-12T17:08:39.192Z,1.03
2023-01-12T17:11:13.953Z,1.87
2023-01-12T17:13:40.780Z,1.30
2023-01-12T17:16:09.186Z,1.50
2023-01-12T17:18:36.828Z,1.20
2023-01-12T17:21:06.853Z,1.27
2023-01-12T17:23:33.598Z,1.60
2023-01-12T17:26:04.164Z,1.77
2023-01-12T17:28:30.889Z,1.30
2023-01-12T17:30:58.048Z,1.57
2023-01-12T17:33:24.860Z,1.23
2023-01-12T17:35:51.218Z,1.90
2023-01-12T17:38:17.573Z,1.57
2023-01-12T17:40:43.912Z,2.03
2023-01-12T17:43:14.467Z,1.60
2023-01-12T17:45:42.687Z,1.53
2023-01-12T17:48:13.110Z,2.23
2023-01-12T17:50:43.076Z,1.60
2023-01-12T17:53:09.556Z,1.57
2023-01-12T17:55:47.462Z,1.50
2023-01-12T17:58:14.598Z,1.27
2023-01-12T18:00:40.972Z,1.97
2023-01-12T18:03:07.364Z,1.83
2023-01-12T18:05:33.724Z,1.87
2023-01-12T18:08:00.101Z,2.00
2023-01-12T18:10:26.528Z,1.40
2023-01-12T18:12:52.878Z,2.20
2023-01-12T18:15:19.773Z,1.53
2023-01-12T18:17:46.111Z,1.53
2023-01-12T18:20:12.527Z,1.60
2023-01-12T18:22:39.188Z,1.47
2023-01-12T18:25:05.771Z,1.77
2023-01-12T18:27:32.081Z,2.30
2023-01-12T18:29:58.438Z,1.27
2023-01-12T18:32:24.818Z,1.60
2023-01-12T18:34:51.347Z,1.60
2023-01-12T18:37:17.919Z,1.80
2023-01-12T18:39:44.995Z,1.70
2023-01-12T18:42:30.188Z,1.77
2023-01-12T18:44:59.390Z,1.53
2023-01-12T18:47:44.315Z,1.43
2023-01-12T18:50:29.616Z,1.47
2023-01-12T18:53:14.312Z,1.17
2023-01-12T18:55:41.288Z,1.80
2023-01-12T18:58:07.642Z,1.27
2023-01-12T19:00:33.983Z,1.70
2023-01-12T19:03:00.443Z,1.20
2023-01-12T19:05:42.119Z,1.70
2023-01-12T19:08:27.233Z,1.70
2023-01-12T19:10:54.576Z,2.03
2023-01-12T19:13:39.752Z,2.10
2023-01-12T19:16:25.417Z,1.63
2023-01-12T19:18:51.928Z,1.70
2023-01-12T19:21:37.068Z,1.30
2023-01-12T19:24:22.318Z,1.40
2023-01-12T19:27:07.185Z,1.23
2023-01-12T19:29:35.341Z,1.93
2023-01-12T19:32:01.864Z,1.83
2023-01-12T19:34:28.220Z,2.13
2023-01-12T19:36:55.276Z,2.67
2023-01-12T19:39:34.217Z,2.27
2023-01-12T19:42:19.188Z,2.20
2023-01-12T19:44:45.504Z,1.60
2023-01-12T19:47:11.847Z,1.77
2023-01-12T19:49:38.222Z,1.97
2023-01-12T19:52:04.661Z,1.80
2023-01-12T19:54:30.997Z,2.20
2023-01-12T19:56:57.331Z,1.63
2023-01-12T19:59:23.660Z,1.50
2023-01-12T20:01:50.779Z,2.37
2023-01-12T20:04:17.230Z,2.03
2023-01-12T20:06:43.568Z,1.97
2023-01-12T20:09:09.930Z,1.93
2023-01-12T20:11:36.246Z,1.63
2023-01-12T20:14:02.592Z,2.03
2023-01-12T20:16:29.654Z,1.70
2023-01-12T20:18:57.065Z,2.30
2023-01-12T20:21:23.396Z,1.97
2023-01-12T20:23:49.785Z,2.33
2023-01-12T20:26:16.126Z,2.10
2023-01-12T20:28:42.452Z,2.30
2023-01-12T20:31:15.631Z,2.70
2023-01-12T20:33:42.116Z,1.90
2023-01-12T20:36:16.810Z,2.27
2023-01-12T20:38:43.551Z,1.50
2023-01-12T20:41:10.710Z,1.50
2023-01-12T20:43:37.561Z,2.00
2023-01-12T20:46:10.815Z,1.93
2023-01-12T20:48:37.420Z,2.53
2023-01-12T20:51:08.325Z,2.30
2023-01-12T20:53:34.640Z,1.80
2023-01-12T20:56:01.108Z,2.00
2023-01-12T20:58:27.608Z,1.50
2023-01-12T21:00:54.125Z,1.40
2023-01-12T21:03:20.658Z,2.13
2023-01-12T21:05:48.901Z,1.90
2023-01-12T21:08:16.393Z,1.73
2023-01-12T21:10:53.538Z,1.87
2023-01-12T21:13:20.930Z,1.83
2023-01-12T21:15:47.599Z,1.83
2023-01-12T21:18:13.925Z,2.13
2023-01-12T21:20:43.768Z,2.40
2023-01-12T21:23:11.275Z,1.70
2023-01-12T21:25:43.569Z,1.60
2023-01-12T21:28:10.625Z,1.67
2023-01-12T21:30:38.319Z,1.80
2023-01-12T21:33:05.029Z,2.13
2023-01-12T21:35:31.370Z,2.53
2023-01-12T21:37:58.116Z,1.53
2023-01-12T21:40:24.856Z,1.30
2023-01-12T21:43:09.515Z,1.83
2023-01-12T21:45:43.699Z,2.10
2023-01-12T21:48:11.647Z,1.80
2023-01-12T21:50:38.474Z,1.90
2023-01-12T21:53:06.169Z,1.90
2023-01-12T21:55:33.809Z,2.30
2023-01-12T21:58:01.972Z,1.80
2023-01-12T22:00:29.077Z,1.67
2023-01-12T22:02:56.541Z,1.70
2023-01-12T22:05:24.060Z,1.83
2023-01-12T22:07:51.397Z,1.70
2023-01-12T22:10:18.815Z,1.60
2023-01-12T22:12:54.926Z,1.60
2023-01-12T22:15:22.546Z,1.70
2023-01-12T22:17:51.064Z,1.87
2023-01-12T22:20:17.536Z,1.57
2023-01-12T22:22:44.591Z,2.00
2023-01-12T22:25:12.954Z,1.57
2023-01-12T22:27:42.588Z,1.50
2023-01-12T22:30:11.848Z,1.63
2023-01-12T22:32:38.197Z,1.33
2023-01-12T22:35:05.067Z,1.83
2023-01-12T22:37:35.768Z,1.40
2023-01-12T22:40:02.762Z,2.00
2023-01-12T22:42:58.504Z,1.43
2023-01-12T22:45:24.854Z,1.30
2023-01-12T22:47:55.897Z,1.50
2023-01-12T22:50:23.724Z,2.37
2023-01-12T22:52:54.499Z,1.30
2023-01-12T22:55:31.337Z,1.77
2023-01-12T22:57:57.640Z,1.23
2023-01-12T23:00:24.103Z,1.30
2023-01-12T23:02:59.857Z,1.97
2023-01-12T23:05:35.997Z,1.23
2023-01-12T23:08:04.570Z,1.43
2023-01-12T23:10:31.243Z,1.63
2023-01-12T23:13:17.499Z,1.47
2023-01-12T23:15:56.556Z,1.33
2023-01-12T23:18:27.855Z,1.43
2023-01-12T23:21:01.484Z,1.20
2023-01-12T23:23:28.409Z,1.60
2023-01-12T23:25:59.882Z,1.20
2023-01-12T23:28:26.261Z,1.67
2023-01-12T23:30:52.603Z,2.07
2023-01-12T23:33:19.096Z,1.37
2023-01-12T23:35:45.404Z,1.20
2023-01-12T23:38:17.689Z,1.60
2023-01-12T23:40:44.230Z,1.60
2023-01-12T23:43:10.640Z,1.87
2023-01-12T23:45:37.131Z,1.47
2023-01-12T23:48:06.593Z,1.93
2023-01-12T23:50:33.184Z,1.20
2023-01-12T23:52:59.735Z,1.50
2023-01-12T23:55:27.445Z,1.50
2023-01-12T23:57:53.787Z,1.30
